Welcome to La Porte Aviation Services!

An aviation adventure awaits

Current Weather Conditions

Available data for KPPO from the past 2 hours
LA PORTE, IN
Metar
KPPO 170115Z AUTO 23006KT 10SM CLR 08/00 A3006 RMK AO2 T00840000

01:15 UTC

Wind: 230° 6kt

Visibility: 10 SM

Sky:

Temp: 8 deg C / 46.4 deg F

Dewpoint: 0 deg C / 32 deg F

Pressure: 30.06 inHg

Pireps (5)
FWA UA /OV FWA/TM 0059/FL270/TP B737/TB MOD/RM CONT MODERATE TURBULENCE AWC-WEB/
FWA UA /OV FWA/TM 0057/FL260/TP B737/TB MOD
FWA UA /OV FWA/TM 0025/FL260/TP LJ35/TB MOD DURGD 260-240
ARP UAL413 4123N 08505W 0012 F380 260/135 TB SMTH SK CLEAR IC NONE RM B738 OV FWA010025 OCNL LT CHOP
ARP UAL2065 4033N 08704W 0004 F280 M31 260/142 TB SMTH RM A319 OV BVT LT CHOP FL260

Connect with us on Facebook!

Facebook By Weblizar Powered By Weblizar